Time;durP1;ratioP1;P1;durP2;ratioP2;P2;SDS_P1;SDS_P2;PMS_P1;PMS_P2;Temp;Humidity;BMP_temperature;BMP_pressure;BME280_temperature;BME280_humidity;BME280_pressure;Samples;Min_cycle;Max_cycle;Signal;HPM_P1;HPM_P2
2020/12/27 00:00:18;;;;;;;8.68;4.92;;;;;;;-0.91;81.00;99929.83;1799959;79;21002;-71
2020/12/27 00:02:45;;;;;;;7.67;4.92;;;;;;;-0.90;81.46;99926.61;1799901;79;21318;-70
2020/12/27 00:05:13;;;;;;;8.55;5.33;;;;;;;-0.89;81.29;99926.38;1799878;79;21604;-71
2020/12/27 00:07:44;;;;;;;12.28;5.85;;;;;;;-0.89;81.12;99919.63;1799722;79;21582;-72
2020/12/27 00:10:11;;;;;;;10.98;5.80;;;;;;;-0.89;80.90;99925.02;1799960;79;21026;-72
2020/12/27 00:12:40;;;;;;;13.68;6.03;;;;;;;-0.89;81.08;99925.02;1799952;79;21061;-72
2020/12/27 00:15:08;;;;;;;10.85;5.35;;;;;;;-0.88;81.08;99925.84;1802841;79;22293;-72
2020/12/27 00:17:35;;;;;;;10.08;5.35;;;;;;;-0.88;81.21;99925.32;1807804;79;21027;-72
2020/12/27 00:20:06;;;;;;;11.60;5.80;;;;;;;-0.88;81.17;99923.15;1807839;79;20979;-72
2020/12/27 00:22:33;;;;;;;10.60;5.65;;;;;;;-0.89;81.24;99922.86;1807832;79;21118;-71
2020/12/27 00:25:03;;;;;;;11.18;5.55;;;;;;;-0.91;81.46;99925.78;1807800;79;21031;-71
2020/12/27 00:27:31;;;;;;;11.60;5.85;;;;;;;-0.92;81.62;99931.41;1807877;79;21354;-72
2020/12/27 00:29:58;;;;;;;9.10;5.10;;;;;;;-0.95;81.66;99929.17;1807711;79;21504;-72
2020/12/27 00:32:28;;;;;;;8.73;5.53;;;;;;;-0.98;81.79;99931.80;1807859;79;20999;-72
2020/12/27 00:34:56;;;;;;;9.68;4.90;;;;;;;-0.98;82.39;99930.98;1805359;79;21003;-71
2020/12/27 00:37:23;;;;;;;8.65;4.78;;;;;;;-0.97;82.34;99932.09;1782179;79;21577;-71
2020/12/27 00:39:54;;;;;;;11.18;5.53;;;;;;;-0.96;82.27;99931.05;1789763;78;21389;-71
2020/12/27 00:42:22;;;;;;;8.73;4.95;;;;;;;-0.95;82.16;99934.03;1789951;79;21035;-73
2020/12/27 00:44:52;;;;;;;9.05;5.03;;;;;;;-0.94;82.07;99938.38;1776181;80;20968;-73
2020/12/27 00:47:19;;;;;;;12.05;5.75;;;;;;;-0.91;82.42;99937.09;1775979;80;21070;-73
2020/12/27 00:49:47;;;;;;;8.65;4.80;;;;;;;-0.88;82.20;99938.80;1776004;80;21066;-73
2020/12/27 00:52:15;;;;;;;6.67;3.90;;;;;;;-0.88;81.82;99940.67;1776061;80;22122;-73
2020/12/27 00:54:42;;;;;;;8.73;4.85;;;;;;;-0.86;81.27;99932.65;1775864;80;21034;-73
2020/12/27 00:57:10;;;;;;;10.43;4.78;;;;;;;-0.84;81.40;99945.37;1776019;80;21106;-73
2020/12/27 00:59:38;;;;;;;9.40;4.20;;;;;;;-0.81;81.20;99940.05;1775995;80;20888;-73
2020/12/27 01:02:06;;;;;;;8.90;4.35;;;;;;;-0.80;81.15;99949.24;1776160;80;21106;-73
2020/12/27 01:04:39;;;;;;;8.90;4.30;;;;;;;-0.79;80.95;99945.50;1771955;80;21364;-73
2020/12/27 01:07:07;;;;;;;8.88;4.25;;;;;;;-0.80;80.68;99951.94;1776170;80;21981;-73
2020/12/27 01:09:35;;;;;;;10.20;3.75;;;;;;;-0.78;80.82;99955.23;1776077;80;20988;-72
2020/12/27 01:12:03;;;;;;;8.48;4.08;;;;;;;-0.77;80.18;99942.57;1776143;80;21554;-73
2020/12/27 01:14:31;;;;;;;7.40;4.05;;;;;;;-0.75;80.38;99945.86;1776114;80;21086;-72
2020/12/27 01:17:01;;;;;;;10.25;4.33;;;;;;;-0.75;80.30;99948.02;1765663;80;21393;-73
2020/12/27 01:19:29;;;;;;;5.97;3.50;;;;;;;-0.74;79.89;99951.02;1748671;81;21515;-73
2020/12/27 01:21:57;;;;;;;7.40;3.92;;;;;;;-0.73;79.65;99954.00;1765714;80;20942;-72
2020/12/27 01:24:26;;;;;;;8.08;3.83;;;;;;;-0.71;79.76;99955.13;1764104;80;21072;-73
2020/12/27 01:26:54;;;;;;;6.55;3.60;;;;;;;-0.70;79.77;99950.84;1765822;80;21547;-72
2020/12/27 01:29:22;;;;;;;5.47;3.05;;;;;;;-0.68;80.09;99958.17;1765762;81;21253;-70
2020/12/27 01:31:51;;;;;;;7.78;3.60;;;;;;;-0.63;79.34;99960.17;1765533;80;21489;-70
2020/12/27 01:34:23;;;;;;;5.22;3.27;;;;;;;-0.61;79.12;99967.50;1764645;80;21119;-72
2020/12/27 01:36:53;;;;;;;4.65;2.80;;;;;;;-0.61;78.53;99969.38;1765745;81;20965;-72
2020/12/27 01:39:21;;;;;;;7.60;3.62;;;;;;;-0.61;78.45;99970.73;1765758;81;21052;-72
2020/12/27 01:41:51;;;;;;;7.10;3.65;;;;;;;-0.60;78.95;99970.50;1765847;81;22254;-72
2020/12/27 01:44:20;;;;;;;6.00;3.30;;;;;;;-0.59;78.48;99980.76;1765778;80;20906;-72
2020/12/27 01:46:49;;;;;;;8.05;3.80;;;;;;;-0.58;78.58;99979.17;1765747;81;20926;-72
2020/12/27 01:49:22;;;;;;;5.37;3.15;;;;;;;-0.58;78.08;99967.57;1765187;80;21468;-74
2020/12/27 01:51:50;;;;;;;7.60;4.05;;;;;;;-0.58;78.08;99964.34;1765767;81;21452;-74
2020/12/27 01:54:20;;;;;;;5.75;3.40;;;;;;;-0.56;78.61;99966.78;1765559;80;21371;-74
2020/12/27 01:57:00;;;;;;;5.78;3.10;;;;;;;-0.56;78.30;99965.43;1728451;81;21088;-73
2020/12/27 01:59:31;;;;;;;7.67;3.12;;;;;;;-0.57;78.25;99977.27;1724353;81;21504;-74
2020/12/27 02:02:01;;;;;;;6.42;3.55;;;;;;;-0.57;78.36;99988.06;1765490;80;20947;-73
2020/12/27 02:04:54;;;;;;;6.92;3.37;;;;;;;-0.56;78.68;99981.08;1873701;76;22388;-72
2020/12/27 02:07:28;;;;;;;6.65;2.87;;;;;;;-0.61;78.42;99978.30;1841716;78;20885;-72
2020/12/27 02:09:58;;;;;;;9.40;3.90;;;;;;;-0.63;78.43;99975.01;1840780;78;21132;-72
2020/12/27 02:12:26;;;;;;;7.40;3.45;;;;;;;-0.63;78.33;99975.53;1841704;78;21020;-72
2020/12/27 02:14:55;;;;;;;6.10;3.33;;;;;;;-0.64;78.67;99984.67;1841656;77;20912;-72
2020/12/27 02:17:24;;;;;;;5.75;3.50;;;;;;;-0.63;78.38;99995.23;1840722;78;20886;-71
2020/12/27 02:20:06;;;;;;;9.40;3.65;;;;;;;-0.65;78.47;99998.69;1839112;78;20960;-71
2020/12/27 02:22:40;;;;;;;7.00;3.08;;;;;;;-0.67;78.83;100004.31;1831077;78;22297;-71
2020/12/27 02:25:27;;;;;;;6.47;3.58;;;;;;;-0.68;78.94;100003.19;1841671;77;20974;-70
2020/12/27 02:27:57;;;;;;;8.80;3.65;;;;;;;-0.67;79.47;100002.14;1840498;78;20964;-70
2020/12/27 02:30:24;;;;;;;7.78;3.87;;;;;;;-0.67;78.88;100003.48;1841602;78;21648;-70
2020/12/27 02:32:52;;;;;;;6.22;3.70;;;;;;;-0.69;78.80;100003.72;1841611;78;20936;-72
2020/12/27 02:35:20;;;;;;;7.45;3.72;;;;;;;-0.70;78.46;100014.73;1841661;78;21327;-72
2020/12/27 02:37:49;;;;;;;5.12;3.27;;;;;;;-0.71;78.90;100019.83;1808791;78;20983;-72
2020/12/27 02:40:16;;;;;;;7.87;3.95;;;;;;;-0.71;78.68;100024.69;1808591;79;20945;-72
2020/12/27 02:42:54;;;;;;;7.65;3.55;;;;;;;-0.67;78.68;100020.48;1873704;76;22645;-70
2020/12/27 02:45:22;;;;;;;7.25;3.22;;;;;;;-0.71;78.53;100029.27;1841705;78;20924;-71
2020/12/27 02:47:55;;;;;;;5.78;2.95;;;;;;;-0.72;78.53;100024.40;1779003;78;22361;-71
2020/12/27 02:50:33;;;;;;;7.95;3.87;;;;;;;-0.75;78.72;100026.20;1822117;78;20908;-73
2020/12/27 02:53:01;;;;;;;9.03;3.40;;;;;;;-0.76;78.56;100036.70;1818752;78;20920;-72
2020/12/27 02:55:29;;;;;;;7.12;3.50;;;;;;;-0.77;78.46;100026.96;1782216;79;21011;-72
2020/12/27 02:57:57;;;;;;;7.92;4.30;;;;;;;-0.80;78.54;100034.16;1830535;78;20992;-72
2020/12/27 03:00:29;;;;;;;7.53;4.03;;;;;;;-0.79;78.99;100036.33;1834337;78;21498;-72
2020/12/27 03:03:09;;;;;;;9.93;4.33;;;;;;;-0.76;79.06;100027.26;1873761;75;22678;-71
2020/12/27 03:05:41;;;;;;;7.25;3.70;;;;;;;-0.82;79.05;100036.78;1840607;78;20968;-70
2020/12/27 03:08:09;;;;;;;6.53;3.83;;;;;;;-0.83;79.20;100035.97;1841650;78;21192;-71
2020/12/27 03:10:47;;;;;;;8.75;4.47;;;;;;;-0.85;79.48;100039.94;1800120;78;21511;-72
2020/12/27 03:13:15;;;;;;;9.60;4.87;;;;;;;-0.87;79.74;100037.47;1841676;78;21463;-73
2020/12/27 03:15:43;;;;;;;9.48;4.53;;;;;;;-0.88;79.67;100039.88;1841659;78;20980;-72
2020/12/27 03:18:18;;;;;;;10.80;5.12;;;;;;;-0.86;79.66;100047.73;1839083;78;21066;-72
2020/12/27 03:20:49;;;;;;;11.70;5.20;;;;;;;-0.84;79.73;100058.58;1838709;78;21199;-72
2020/12/27 03:23:17;;;;;;;9.25;4.45;;;;;;;-0.83;79.90;100053.48;1841686;78;21083;-72
2020/12/27 03:25:55;;;;;;;8.45;4.55;;;;;;;-0.77;80.00;100056.62;1873696;76;22690;-70
2020/12/27 03:28:23;;;;;;;12.07;5.33;;;;;;;-0.80;80.04;100054.91;1841718;78;20885;-70
2020/12/27 03:30:59;;;;;;;9.60;4.97;;;;;;;-0.81;80.16;100060.00;1839956;78;21258;-70
2020/12/27 03:33:28;;;;;;;15.25;6.67;;;;;;;-0.81;80.29;100055.43;1841099;78;21098;-70
2020/12/27 03:35:58;;;;;;;11.38;5.80;;;;;;;-0.80;80.34;100047.64;1841656;78;21574;-73
2020/12/27 03:38:27;;;;;;;14.55;6.08;;;;;;;-0.78;80.34;100050.11;1830117;78;21027;-73
2020/12/27 03:41:08;;;;;;;11.60;4.78;;;;;;;-0.73;80.27;100051.06;1873723;76;22734;-72
2020/12/27 03:43:54;;;;;;;8.68;4.53;;;;;;;-0.76;80.14;100056.09;1841755;78;20992;-72
2020/12/27 03:46:24;;;;;;;11.12;4.37;;;;;;;-0.78;79.96;100053.63;1836492;78;21363;-72
2020/12/27 03:48:53;;;;;;;7.92;3.60;;;;;;;-0.80;79.91;100049.52;1837567;78;21007;-71
2020/12/27 03:51:45;;;;;;;12.40;3.12;;;;;;;-0.79;80.07;100059.24;1885639;76;22687;-70
2020/12/27 03:54:15;;;;;;;10.10;3.72;;;;;;;-0.87;80.12;100067.65;1827695;77;20995;-70
2020/12/27 03:56:55;;;;;;;7.00;3.50;;;;;;;-0.87;80.05;100067.65;1890194;76;22630;-70
2020/12/27 03:59:34;;;;;;;7.55;3.75;;;;;;;-0.95;80.11;100074.18;1859868;77;20927;-71
2020/12/27 04:02:03;;;;;;;7.30;3.85;;;;;;;-0.98;80.23;100087.28;1859997;77;22230;-71
2020/12/27 04:04:32;;;;;;;7.85;4.33;;;;;;;-0.98;80.58;100089.98;1860944;77;20924;-73
2020/12/27 04:07:01;;;;;;;7.53;3.95;;;;;;;-1.01;80.92;100088.56;1860716;77;20983;-72
2020/12/27 04:09:39;;;;;;;11.30;5.10;;;;;;;-1.00;81.24;100092.38;1890091;76;22630;-70
2020/12/27 04:12:13;;;;;;;10.80;6.12;;;;;;;-1.04;81.40;100088.48;1861060;77;20916;-72
2020/12/27 04:14:39;;;;;;;14.18;6.95;;;;;;;-1.04;81.44;100084.45;1861127;77;22255;-73
2020/12/27 04:17:08;;;;;;;9.43;5.33;;;;;;;-1.00;81.38;100093.73;1861004;77;21061;-73
2020/12/27 04:19:35;;;;;;;14.45;6.92;;;;;;;-0.98;81.47;100093.50;1861061;77;20936;-72
2020/12/27 04:22:04;;;;;;;14.13;5.62;;;;;;;-0.97;81.62;100098.36;1859679;77;20996;-72
2020/12/27 04:24:34;;;;;;;11.93;5.85;;;;;;;-0.97;81.72;100097.02;1858856;77;21089;-73
2020/12/27 04:27:03;;;;;;;13.75;5.83;;;;;;;-0.98;81.90;100096.19;1827881;77;21365;-75
2020/12/27 04:29:31;;;;;;;10.50;4.72;;;;;;;-1.01;82.00;100096.12;1860904;77;21667;-73
2020/12/27 04:31:58;;;;;;;13.53;4.87;;;;;;;-1.08;82.08;100091.86;1860766;77;21011;-73
2020/12/27 04:34:36;;;;;;;12.68;6.70;;;;;;;-1.12;82.30;100091.49;1872777;76;22709;-72
2020/12/27 04:37:07;;;;;;;14.98;6.08;;;;;;;-1.18;82.51;100090.25;1808844;78;20932;-72
2020/12/27 04:39:36;;;;;;;14.58;6.12;;;;;;;-1.21;82.53;100094.75;1814179;78;21183;-72
2020/12/27 04:42:04;;;;;;;11.63;5.90;;;;;;;-1.24;82.58;100102.75;1808142;79;20995;-73
2020/12/27 04:44:34;;;;;;;9.35;4.92;;;;;;;-1.26;82.70;100110.23;1806904;78;20956;-73
2020/12/27 04:47:03;;;;;;;12.63;5.67;;;;;;;-1.31;82.75;100107.91;1779967;79;20917;-75
2020/12/27 04:49:45;;;;;;;12.88;6.28;;;;;;;-1.35;83.04;100102.98;1873764;76;22724;-73
2020/12/27 04:52:13;;;;;;;14.75;5.37;;;;;;;-1.42;83.31;100107.61;1812227;78;20932;-73
2020/12/27 04:54:43;;;;;;;11.88;5.83;;;;;;;-1.42;83.47;100110.83;1829686;77;22271;-75
2020/12/27 04:57:15;;;;;;;21.00;8.38;;;;;;;-1.40;83.51;100117.64;1840113;78;21023;-74
2020/12/27 04:59:46;;;;;;;16.87;7.35;;;;;;;-1.39;83.61;100135.45;1841688;77;20920;-79
2020/12/27 05:02:15;;;;;;;15.30;5.10;;;;;;;-1.39;83.63;100128.71;1841692;78;21094;-69
2020/12/27 05:04:47;;;;;;;14.13;5.92;;;;;;;-1.38;83.67;100133.58;1840990;78;21003;-70
2020/12/27 05:07:22;;;;;;;11.95;5.17;;;;;;;-1.39;83.82;100135.45;1841366;78;21289;-67
2020/12/27 05:10:09;;;;;;;12.75;5.75;;;;;;;-1.40;83.93;100145.09;1807835;78;21015;-67
2020/12/27 05:12:39;;;;;;;10.20;4.58;;;;;;;-1.45;84.06;100153.84;1822801;78;20892;-67
2020/12/27 05:15:08;;;;;;;8.18;4.50;;;;;;;-1.49;84.33;100152.64;1808577;79;20912;-68
2020/12/27 05:17:37;;;;;;;11.08;5.47;;;;;;;-1.54;84.54;100142.23;1817129;78;21071;-68
2020/12/27 05:20:14;;;;;;;9.68;5.08;;;;;;;-1.60;84.76;100143.12;1779798;78;21368;-67
2020/12/27 05:22:42;;;;;;;10.70;5.60;;;;;;;-1.66;85.03;100151.03;1811360;78;20896;-67
2020/12/27 05:25:14;;;;;;;9.50;5.90;;;;;;;-1.71;85.26;100154.91;1841472;78;21034;-68
2020/12/27 05:28:09;;;;;;;11.83;6.20;;;;;;;-1.71;85.55;100160.81;1873777;75;22651;-68
2020/12/27 05:30:42;;;;;;;12.97;6.90;;;;;;;-1.78;85.57;100156.87;1811646;78;20901;-68
2020/12/27 05:33:29;;;;;;;13.00;6.92;;;;;;;-1.81;85.63;100159.17;1841741;78;21187;-68
2020/12/27 05:36:04;;;;;;;10.80;5.87;;;;;;;-1.87;85.70;100166.26;1840174;78;20897;-68
2020/12/27 05:38:33;;;;;;;9.80;5.03;;;;;;;-1.90;85.77;100171.25;1828840;78;21565;-68
2020/12/27 05:41:28;;;;;;;9.38;5.03;;;;;;;-1.91;85.88;100173.13;1890142;75;22677;-69
2020/12/27 05:44:16;;;;;;;8.25;4.72;;;;;;;-1.98;85.91;100183.63;1860386;77;20912;-68
2020/12/27 05:46:44;;;;;;;9.33;5.15;;;;;;;-2.04;85.96;100186.16;1840367;77;22273;-69
2020/12/27 05:49:14;;;;;;;18.30;6.95;;;;;;;-2.08;86.07;100188.97;1857750;77;20900;-72
2020/12/27 05:51:55;;;;;;;12.88;7.00;;;;;;;-2.11;86.14;100193.96;1827682;76;20920;-68
2020/12/27 05:54:35;;;;;;;12.95;6.30;;;;;;;-2.15;86.25;100192.23;1852032;76;21632;-69
2020/12/27 05:57:05;;;;;;;11.43;6.25;;;;;;;-2.17;86.36;100193.48;1859987;77;21034;-69
2020/12/27 05:59:36;;;;;;;9.55;5.12;;;;;;;-2.19;86.43;100197.73;1861102;77;22242;-69
2020/12/27 06:02:41;;;;;;;9.10;4.85;;;;;;;-2.17;86.41;100198.86;1890154;76;22679;-69
2020/12/27 06:05:57;;;;;;;10.85;4.83;;;;;;;-2.22;86.44;100209.45;1860245;77;20999;-70
2020/12/27 06:08:35;;;;;;;10.63;6.00;;;;;;;-2.23;86.64;100214.00;1859123;77;21221;-69
2020/12/27 06:11:24;;;;;;;11.22;6.42;;;;;;;-2.18;86.84;100220.08;1858455;77;20946;-70
2020/12/27 06:14:26;;;;;;;8.05;4.90;;;;;;;-2.15;86.83;100223.16;1859061;77;21562;-70
2020/12/27 06:17:11;;;;;;;9.93;4.83;;;;;;;-2.12;86.96;100225.42;1855789;77;20915;-69
2020/12/27 06:19:59;;;;;;;8.08;4.37;;;;;;;-2.07;87.24;100229.63;1860988;77;20962;-70
2020/12/27 06:22:31;;;;;;;7.85;4.70;;;;;;;-2.04;87.20;100229.20;1860421;77;22402;-70
2020/12/27 06:25:09;;;;;;;8.15;4.60;;;;;;;-2.02;87.02;100221.73;1822450;77;20975;-69
2020/12/27 06:27:38;;;;;;;12.28;5.35;;;;;;;-2.01;86.94;100223.38;1828533;77;21554;-70
2020/12/27 06:30:13;;;;;;;9.30;4.50;;;;;;;-1.98;86.83;100226.68;1827072;77;21775;-69
2020/12/27 06:33:02;;;;;;;17.15;7.75;;;;;;;-1.97;86.68;100235.06;1837996;75;21018;-70
2020/12/27 06:35:33;;;;;;;32.70;14.85;;;;;;;-1.95;86.68;100234.32;1827063;78;22254;-69
2020/12/27 06:38:02;;;;;;;32.83;15.63;;;;;;;-1.91;86.63;100239.05;1829403;77;20963;-69
2020/12/27 06:40:31;;;;;;;40.48;16.90;;;;;;;-1.87;86.57;100236.23;1814221;77;20922;-69
2020/12/27 06:43:23;;;;;;;31.73;14.68;;;;;;;-1.78;86.48;100242.17;1873274;76;22867;-78
2020/12/27 06:45:55;;;;;;;21.68;9.50;;;;;;;-1.77;86.40;100249.20;1831606;78;20940;-82
2020/12/27 06:48:37;;;;;;;21.30;10.78;;;;;;;-1.72;86.29;100261.46;1789909;78;21277;-83
2020/12/27 06:51:12;;;;;;;20.80;8.53;;;;;;;-1.67;86.16;100258.94;1838083;78;21027;-73
2020/12/27 06:53:43;;;;;;;15.43;7.25;;;;;;;-1.62;86.04;100264.49;1784249;78;20913;-80
2020/12/27 06:56:23;;;;;;;8.30;4.80;;;;;;;-1.56;85.95;100264.97;1839556;78;20979;-76
2020/12/27 06:59:09;;;;;;;10.25;5.00;;;;;;;-1.47;85.86;100266.34;1793112;78;20913;-77
2020/12/27 07:01:37;;;;;;;10.43;5.92;;;;;;;-1.40;85.71;100264.42;1841582;78;21349;-77
2020/12/27 07:04:15;;;;;;;14.40;6.67;;;;;;;-1.29;85.63;100269.62;1841592;78;20940;-77
2020/12/27 07:06:46;;;;;;;15.60;7.47;;;;;;;-1.17;85.65;100271.89;1841694;78;21547;-78
2020/12/27 07:09:23;;;;;;;19.20;10.18;;;;;;;-0.95;85.40;100280.36;1841632;78;20936;-78
2020/12/27 07:12:11;;;;;;;17.12;6.78;;;;;;;-0.84;84.57;100279.62;1841650;78;21023;-79
2020/12/27 07:14:42;;;;;;;19.42;9.48;;;;;;;-0.76;84.03;100282.55;1842024;78;21364;-85
2020/12/27 07:17:12;;;;;;;12.13;5.62;;;;;;;-0.73;83.50;100280.77;1841787;78;21014;-82
2020/12/27 07:19:40;;;;;;;12.18;6.15;;;;;;;-0.73;83.04;100285.63;1784244;78;20928;-77
2020/12/27 07:22:12;;;;;;;13.13;6.10;;;;;;;-0.77;82.89;100294.39;1841533;78;21055;-76
2020/12/27 07:24:41;;;;;;;14.18;5.78;;;;;;;-0.78;82.60;100298.13;1841689;77;21003;-81
2020/12/27 07:27:10;;;;;;;10.50;5.80;;;;;;;-0.77;82.65;100295.73;1841661;77;21187;-79
2020/12/27 07:29:38;;;;;;;10.53;5.47;;;;;;;-0.75;82.83;100298.52;1841542;77;20885;-74
2020/12/27 07:32:05;;;;;;;16.02;8.40;;;;;;;-0.77;82.31;100295.73;1811527;78;20980;-73
2020/12/27 07:34:33;;;;;;;17.15;10.00;;;;;;;-0.78;82.37;100296.78;1841561;77;21011;-74
2020/12/27 07:37:04;;;;;;;19.27;9.80;;;;;;;-0.75;82.45;100302.55;1841533;78;20932;-73
2020/12/27 07:39:53;;;;;;;13.28;6.05;;;;;;;-0.73;82.29;100303.16;1817049;78;22216;-84
2020/12/27 07:42:31;;;;;;;10.48;5.90;;;;;;;-0.71;82.20;100292.97;1810619;79;21873;-72
2020/12/27 07:45:10;;;;;;;9.65;5.60;;;;;;;-0.67;81.91;100300.09;1814089;79;21070;-72
2020/12/27 07:47:41;;;;;;;13.13;7.10;;;;;;;-0.61;82.00;100305.94;1814361;79;21589;-81
2020/12/27 07:50:14;;;;;;;10.00;5.70;;;;;;;-0.52;82.22;100306.44;1814326;79;21499;-77
2020/12/27 07:52:52;;;;;;;19.02;8.58;;;;;;;-0.46;81.95;100302.84;1813390;79;22170;-81
2020/12/27 07:55:34;;;;;;;41.80;15.80;;;;;;;-0.39;82.07;100311.68;1812923;79;20992;-79
2020/12/27 07:58:04;;;;;;;36.10;15.90;;;;;;;-0.32;81.73;100302.98;1813286;79;21156;-78
2020/12/27 08:00:33;;;;;;;34.27;18.35;;;;;;;-0.23;81.59;100301.63;1812939;79;21143;-76
2020/12/27 08:03:05;;;;;;;15.45;8.23;;;;;;;-0.08;81.64;100303.41;1812924;79;21145;-78
2020/12/27 08:05:34;;;;;;;17.47;7.50;;;;;;;0.16;81.43;100303.48;1813196;79;21233;-82
2020/12/27 08:08:06;;;;;;;14.40;6.95;;;;;;;0.40;80.92;100303.03;1813330;79;21023;-78
2020/12/27 08:10:34;;;;;;;13.43;7.22;;;;;;;0.63;80.38;100297.13;1813814;79;21007;-76
2020/12/27 08:13:04;;;;;;;23.30;11.25;;;;;;;0.84;79.50;100298.98;1813681;79;21019;-76
2020/12/27 08:15:38;;;;;;;17.82;10.68;;;;;;;0.99;78.50;100293.94;1813822;79;21149;-79
2020/12/27 08:18:09;;;;;;;14.80;8.13;;;;;;;1.22;78.13;100292.56;1813840;79;21196;-81
2020/12/27 08:20:47;;;;;;;18.85;10.30;;;;;;;1.71;77.37;100287.66;1814044;79;20944;-80
2020/12/27 08:23:16;;;;;;;13.85;7.87;;;;;;;2.30;75.37;100286.36;1813632;79;20936;-82
2020/12/27 08:25:43;;;;;;;10.03;5.78;;;;;;;2.90;74.38;100289.76;1813714;79;21609;-80
2020/12/27 08:28:14;;;;;;;11.33;5.65;;;;;;;3.46;72.83;100292.48;1813729;79;21587;-75
2020/12/27 08:30:44;;;;;;;14.38;6.85;;;;;;;4.01;70.74;100296.42;1786759;79;21405;-86
2020/12/27 08:33:16;;;;;;;12.65;6.80;;;;;;;4.51;69.77;100293.93;1787356;79;20991;-88
2020/12/27 08:35:48;;;;;;;13.48;6.97;;;;;;;5.29;65.88;100292.33;1813739;79;20944;-85
2020/12/27 08:38:27;;;;;;;11.25;6.78;;;;;;;5.29;65.88;100292.33;1813836;77;21612;-83
2020/12/27 08:41:08;;;;;;;13.03;7.00;;;;;;;5.48;62.99;100288.09;1813839;79;21074;-79
2020/12/27 08:43:57;;;;;;;12.98;7.22;;;;;;;5.48;62.99;100288.09;1801198;79;21185;-88
2020/12/27 08:46:31;;;;;;;10.93;6.15;;;;;;;5.61;62.90;100301.77;1769004;79;21574;-81
2020/12/27 08:49:10;;;;;;;13.28;8.10;;;;;;;5.90;61.66;100294.83;1800148;78;21502;-79
2020/12/27 08:51:41;;;;;;;11.30;6.70;;;;;;;6.21;60.08;100292.21;1799127;78;21467;-78
2020/12/27 08:54:11;;;;;;;11.18;6.50;;;;;;;6.36;58.78;100299.03;1800030;79;20912;-76
2020/12/27 08:56:39;;;;;;;12.93;6.40;;;;;;;6.44;57.68;100292.23;1785114;79;22095;-74
2020/12/27 08:59:09;;;;;;;9.68;5.30;;;;;;;6.40;58.14;100282.95;1799935;79;20951;-78
2020/12/27 09:01:39;;;;;;;11.57;7.00;;;;;;;6.43;57.56;100280.50;1760964;79;20927;-77
2020/12/27 09:04:21;;;;;;;11.88;7.58;;;;;;;6.47;56.84;100278.88;1800037;78;20938;-80
2020/12/27 09:06:56;;;;;;;14.95;8.23;;;;;;;6.48;56.83;100278.33;1800053;79;20991;-85
2020/12/27 09:09:24;;;;;;;11.28;6.72;;;;;;;6.66;57.41;100273.72;1800115;79;21188;-84
2020/12/27 09:11:51;;;;;;;18.75;6.10;;;;;;;6.91;56.45;100283.27;1799982;79;21633;-84
2020/12/27 09:14:35;;;;;;;11.93;7.37;;;;;;;7.05;54.99;100281.33;1800134;79;21038;-77
2020/12/27 09:17:08;;;;;;;15.00;8.68;;;;;;;6.87;55.29;100271.81;1800136;78;20998;-85
2020/12/27 09:19:35;;;;;;;;;;;;;;;6.91;56.01;100265.53;1802366;79;21545;-74
2020/12/27 09:22:04;;;;;;;12.80;6.80;;;;;;;6.99;54.38;100261.40;1799242;79;22264;-76
2020/12/27 09:24:33;;;;;;;15.25;8.18;;;;;;;6.90;54.55;100255.70;1799683;79;21018;-76
2020/12/27 09:27:11;;;;;;;12.55;6.75;;;;;;;7.09;54.54;100264.12;1798315;79;20940;-77
2020/12/27 09:29:38;;;;;;;11.88;6.87;;;;;;;7.28;53.79;100264.36;1763228;80;21147;-75
2020/12/27 09:32:13;;;;;;;13.22;6.85;;;;;;;7.25;54.34;100256.72;1746665;82;21052;-74
2020/12/27 09:34:43;;;;;;;10.88;6.62;;;;;;;7.36;54.77;100267.89;1763290;81;21190;-76
2020/12/27 09:37:16;;;;;;;11.70;7.08;;;;;;;7.54;53.93;100264.55;1737836;81;21071;-76
2020/12/27 09:39:45;;;;;;;143.93;41.33;;;;;;;7.75;53.91;100259.01;1763316;80;21107;-76
2020/12/27 09:42:25;;;;;;;29.57;12.05;;;;;;;7.88;52.73;100270.16;1763662;80;21156;-82
2020/12/27 09:44:53;;;;;;;18.98;9.80;;;;;;;7.97;52.58;100279.96;1764479;79;21579;-78
2020/12/27 09:47:27;;;;;;;12.25;7.70;;;;;;;8.16;52.17;100282.30;1754193;81;21481;-81
2020/12/27 09:50:03;;;;;;;12.90;7.25;;;;;;;8.35;51.57;100286.60;1766022;80;21557;-81
2020/12/27 09:52:31;;;;;;;13.25;6.75;;;;;;;8.42;50.31;100285.73;1765949;81;20888;-85
2020/12/27 09:55:00;;;;;;;9.80;6.10;;;;;;;8.20;50.48;100275.16;1765968;81;20895;-84
2020/12/27 09:57:28;;;;;;;12.53;6.33;;;;;;;8.02;51.10;100273.66;1751199;81;20950;-78
2020/12/27 09:59:55;;;;;;;12.55;7.10;;;;;;;7.92;50.79;100279.44;1767208;81;21360;-74
2020/12/27 10:02:24;;;;;;;9.95;5.97;;;;;;;7.92;51.10;100283.53;1767492;80;21021;-75
2020/12/27 10:04:51;;;;;;;9.25;6.00;;;;;;;8.01;51.34;100287.05;1767651;80;21037;-75
2020/12/27 10:07:19;;;;;;;7.50;5.03;;;;;;;7.87;50.41;100289.58;1767566;81;21068;-75
2020/12/27 10:09:46;;;;;;;11.08;5.95;;;;;;;7.61;50.61;100299.22;1767621;80;20926;-75
2020/12/27 10:12:14;;;;;;;10.80;6.28;;;;;;;7.27;50.86;100293.59;1767654;81;21187;-74
2020/12/27 10:14:42;;;;;;;11.63;6.65;;;;;;;6.93;52.33;100295.28;1767500;80;21032;-74
2020/12/27 10:17:10;;;;;;;10.15;6.20;;;;;;;6.88;53.08;100291.19;1767561;81;21473;-74
2020/12/27 10:19:38;;;;;;;8.48;5.90;;;;;;;6.98;52.92;100292.52;1767539;81;21007;-75
2020/12/27 10:22:05;;;;;;;8.90;5.62;;;;;;;7.23;52.14;100292.50;1767691;81;21013;-79
2020/12/27 10:24:33;;;;;;;11.40;6.37;;;;;;;7.47;51.22;100289.18;1767576;81;21721;-76
2020/12/27 10:27:05;;;;;;;11.50;6.35;;;;;;;7.61;50.08;100287.47;1767550;81;20953;-75
2020/12/27 10:29:34;;;;;;;11.33;7.17;;;;;;;7.73;49.22;100282.52;1767729;80;21002;-75
2020/12/27 10:32:03;;;;;;;12.45;6.80;;;;;;;7.74;50.07;100278.69;1767534;81;20895;-75
2020/12/27 10:34:32;;;;;;;10.10;6.45;;;;;;;7.88;49.86;100274.80;1767622;81;21152;-73
2020/12/27 10:37:00;;;;;;;8.40;5.50;;;;;;;7.88;47.76;100275.63;1767570;80;21361;-74
2020/12/27 10:39:27;;;;;;;7.92;5.22;;;;;;;7.45;48.47;100272.25;1767514;79;20972;-75
2020/12/27 10:41:56;;;;;;;9.88;5.42;;;;;;;6.88;49.30;100265.26;1767526;81;20928;-74
2020/12/27 10:44:24;;;;;;;11.97;6.10;;;;;;;6.61;51.83;100269.62;1764518;81;20989;-75
2020/12/27 10:46:51;;;;;;;16.02;6.87;;;;;;;6.61;51.83;100269.62;1764619;81;21512;-75
2020/12/27 10:49:21;;;;;;;12.53;6.75;;;;;;;6.67;51.23;100260.89;1764690;81;21807;-76
2020/12/27 10:51:49;;;;;;;12.30;5.97;;;;;;;6.69;51.35;100254.62;1764537;81;20950;-76
2020/12/27 10:54:16;;;;;;;11.88;6.08;;;;;;;6.81;51.16;100255.16;1764624;81;21099;-75
2020/12/27 10:56:44;;;;;;;12.25;6.72;;;;;;;6.85;51.45;100261.71;1764533;81;21564;-75
2020/12/27 10:59:14;;;;;;;11.18;6.67;;;;;;;6.68;51.24;100252.98;1764588;81;21188;-74
2020/12/27 11:01:49;;;;;;;14.25;7.92;;;;;;;6.74;52.21;100242.34;1764661;80;22372;-74
2020/12/27 11:04:16;;;;;;;11.00;5.90;;;;;;;6.74;52.21;100242.34;1764157;81;20949;-75
2020/12/27 11:06:43;;;;;;;11.45;5.55;;;;;;;6.90;51.22;100237.14;1764569;81;21001;-75
2020/12/27 11:09:11;;;;;;;24.95;11.93;;;;;;;6.84;50.41;100248.61;1772693;80;21033;-75
2020/12/27 11:11:39;;;;;;;12.47;6.92;;;;;;;6.71;52.15;100242.34;1764566;81;20946;-75
2020/12/27 11:14:07;;;;;;;10.85;6.60;;;;;;;6.78;50.81;100243.43;1764627;81;22251;-75
2020/12/27 11:16:35;;;;;;;111.32;56.63;;;;;;;6.52;50.13;100246.15;1764580;81;21567;-74
2020/12/27 11:19:02;;;;;;;26.65;15.40;;;;;;;6.13;51.35;100243.12;1764539;81;20994;-75
2020/12/27 11:21:30;;;;;;;16.32;7.08;;;;;;;5.95;51.34;100240.89;1764547;81;21439;-74
2020/12/27 11:23:58;;;;;;;8.30;5.20;;;;;;;5.84;52.58;100246.00;1764500;80;21069;-74
2020/12/27 11:26:26;;;;;;;12.07;5.70;;;;;;;5.97;51.90;100242.80;1764585;81;21570;-74
2020/12/27 11:28:53;;;;;;;10.15;6.53;;;;;;;5.89;51.58;100252.86;1764573;81;21552;-74
2020/12/27 11:31:22;;;;;;;15.15;8.08;;;;;;;5.99;52.63;100252.07;1764698;81;21147;-74
2020/12/27 11:33:50;;;;;;;12.85;6.72;;;;;;;5.99;52.63;100252.07;1764692;81;20938;-73
2020/12/27 11:36:18;;;;;;;9.13;5.00;;;;;;;6.18;50.04;100246.40;1764728;81;20946;-74
2020/12/27 11:38:45;;;;;;;15.55;5.25;;;;;;;6.18;50.04;100246.40;1764547;80;21160;-73
2020/12/27 11:41:15;;;;;;;12.53;5.45;;;;;;;6.11;50.32;100238.48;1764253;80;21017;-74
2020/12/27 11:43:43;;;;;;;11.08;5.92;;;;;;;6.10;49.81;100234.11;1763780;81;21156;-73
2020/12/27 11:46:13;;;;;;;8.90;4.90;;;;;;;6.13;49.49;100237.66;1764710;81;21545;-74